x

North Michigan- Halfway Between North Manitou And Washington Islands. (45002) Wave Buoy

10:50am - Wed 27th Jul 2016 All times are CDT. -5 hours from GMT.

  • Sig Wave height 1.0ft
  • Swell Direction
  • Peak Period 4s
  • Average Period 3s
  • Wind
    9mph, 11mph gusts
  • Sea Temp 70°f
  • Air Temp 70°f
  • Sea Pressure 1014.9mb
  • North Michigan- Halfway Between North Manitou And Washington Islands.
  • North Michigan- Halfway Between North Manitou And Washington Islands.

More Historic Weather Station data

Upgrade to MSW Pro to gain access to the past 30 days of data for over 8000 Wavebouys and Weather Stations around the globe.

Join Pro

Comparision Forecast

View Surf forecast
   
Wed 07/27 10:50am 1ft 4s 3s 9 11 mph 1014.9mb 70f 70f
9:50am 1ft 4s 3s 9 11 mph 1014.5mb 70f 70f
8:50am 1ft 4s 3s 4
mph
1014.2mb 70f 70f
7:50am 1.3ft 4s 3s 4
mph
1013.8mb 69f 70f
6:50am 1.3ft 4s 4s 4
mph
1013.7mb 69f 69f
5:50am 1.6ft 4s 4s 7
mph
1013.8mb 69f 70f
4:50am 1.6ft 5s 4s 7 11 mph 1013.4mb 69f 71f
3:50am 2ft 5s 4s 9 11 mph 1013.5mb 69f 71f
2:50am 2ft 5s 4s 4 7 mph 1012.9mb 69f 71f
1:50am 2.5ft 5s 4s 9 11 mph 1012.6mb 69f 71f
12:50am 2.5ft 5s 4s 11 13 mph 1012.5mb 69f 71f
Tue 07/26 11:50pm 3ft 4s 4s 16 20 mph 1011.9mb 69f 72f
10:50pm 3ft 4s 4s 18 20 mph 1012.3mb 69f 72f
9:50pm 2.5ft 4s 4s 20 22 mph 1012.2mb 69f 72f
8:50pm 2.5ft 4s 4s 18 20 mph 1012.4mb 70f 72f
7:50pm 2.5ft 4s 4s 20 25 mph 1012.1mb 70f 73f
6:50pm 2.5ft 4s 3s 18 22 mph 1012.4mb 70f 73f
5:50pm 2.5ft 4s 3s 16 18 mph 1012.7mb 70f 73f
4:50pm 1.6ft 3s 3s 18 20 mph 1013.3mb 71f 73f
3:50pm 1.3ft 3s 3s 16 18 mph 1013.9mb 71f 72f
2:50pm 1.3ft 3s 3s 16 18 mph 1014.2mb 71f 72f
1:50pm 0.7ft  -  2s 13 16 mph 1014.7mb 71f 72f
12:50pm 0.3ft  -  3s 11 13 mph 1015mb 71f 71f
11:50am 0.3ft  -  3s 11 13 mph 1015.6mb 71f 71f
10:50am 0.3ft  -  3s 9
mph
1015.6mb 70f 70f
9:50am 0.3ft  -  4s 7
mph
1015.8mb 70f 70f
8:50am 0.7ft  -  4s 7
mph
1016.1mb 70f 70f
7:50am 0.7ft  -  4s 4
mph
1016.3mb 69f 70f
6:50am 0.7ft  -  4s 7 9 mph 1015.8mb 69f 70f
5:50am 0.7ft  -  4s 9
mph
1015.5mb 69f 70f
4:50am 0.7ft  -  4s 4
mph
1015.3mb 69f 69f
3:50am 0.7ft  -  4s 4
mph
1015.2mb 70f 69f
2:50am 0.7ft  -  3s 7
mph
1015.2mb 69f 69f
1:50am 0.7ft  -  3s 4
mph
1015.3mb 70f 70f
12:50am 0.7ft  -  3s 4 7 mph 1015.2mb 70f 70f
Mon 07/25 11:50pm 0.7ft  -  3s 7 9 mph 1015.1mb 70f 71f
10:50pm 0.7ft  -  3s 7
mph
1014.7mb 70f 71f
9:50pm 0.7ft  -  3s 4 7 mph 1014.4mb 70f 71f
8:50pm 0.7ft  -  3s 7
mph
1014mb 71f 71f
7:50pm 0.7ft  -  3s 7 9 mph 1013.8mb 71f 72f
6:50pm 0.7ft  -  3s 7
mph
1013.6mb 71f 72f
5:50pm 1ft 5s 3s 7
mph
1013.3mb 71f 73f
4:50pm 1ft 5s 4s 4 7 mph 1013.2mb 71f 73f
3:50pm 1ft 5s 4s 7
mph
1012.8mb 71f 72f
2:50pm 1ft 5s 4s 7
mph
1013mb 70f 72f
12:50pm 1.3ft 3s 3s 9 11 mph 1012.9mb 69f 71f
11:50am 1.6ft 5s 3s 9
mph
1012.8mb 69f 70f
10:50am 1.6ft 5s 3s 11 13 mph 1012.4mb 69f 70f
9:50am 2ft 3s 3s 13 16 mph 1012.1mb 68f 69f
8:50am 1.6ft 5s 3s 13
mph
1011.9mb 68f 69f
7:50am 1.6ft 6s 3s 13 16 mph 1011.6mb 68f 69f
6:50am 1.6ft 6s 4s 11 13 mph 1011.2mb 68f 69f
5:50am 2ft 6s 4s 11 13 mph 1010.7mb 68f 70f
4:50am 2ft 6s 5s 13 16 mph 1010.3mb 68f 70f
3:50am 2ft 6s 5s 9
mph
1010.3mb 68f 69f
2:50am 2ft 5s 4s 9
mph
1010.1mb 68f 70f
1:50am 2.5ft 6s 4s 4 7 mph 1009.9mb 68f 70f
12:50am 2.5ft 6s 5s 4
mph
1009.4mb 68f 70f
Sun 07/24 11:50pm 3ft 6s 5s 7
mph
1008.9mb 68f 70f
10:50pm 3.5ft 6s 5s 9
mph
1008.4mb 68f 71f
9:50pm 3.5ft 6s 5s 11 13 mph 1008.3mb 68f 69f
8:50pm 4ft 6s 5s 13 16 mph 1007.7mb 68f 69f
7:50pm 4ft 7s 5s 13 16 mph 1007.5mb 68f 69f
6:50pm 4ft 6s 5s 13 16 mph 1007.4mb 68f 70f
5:50pm 4ft 5s 4s 18 20 mph 1007.3mb 68f 70f
4:50pm 3.5ft 6s 4s 18 20 mph 1007.4mb 68f 70f
3:50pm 3.5ft 6s 4s 18 22 mph 1007.5mb 68f 70f
2:50pm 3.5ft 5s 4s 13 16 mph 1007.8mb 68f 69f
1:50pm 3.5ft 6s 4s 13 16 mph 1008.4mb 68f 69f
12:50pm 4.5ft 5s 4s 22 27 mph 1008.4mb 68f 70f
11:50am 4ft 5s 4s 20 25 mph 1008.3mb 69f 70f
10:50am 3.5ft 5s 4s 22 27 mph 1008.4mb 68f 70f
9:50am 3ft 4s 4s 22 27 mph 1008mb 69f 70f
8:50am 2.5ft 5s 4s 18 20 mph 1008.9mb 69f 69f
7:50am 2.5ft 4s 4s 11 13 mph 1009.8mb 69f 69f
6:50am 2.5ft 4s 3s 16 20 mph 1010mb 69f 70f
5:50am 1.3ft 3s 3s 16 20 mph 1009.5mb 69f 70f
4:50am 0.3ft  -  3s 16 22 mph 1009.8mb 70f 71f
3:50am 0.3ft  -  3s 9
mph
1010.5mb 71f 72f
2:50am 0.3ft  -  3s 4
mph
1011.1mb 70f 71f
1:50am 0.3ft  -  3s  -  2 mph 1011mb 69f 71f
12:50am 0.3ft  -  3s 9 13 mph 1012mb 69f 72f
Sat 07/23 11:50pm 0.3ft  -  3s 11
mph
1011.3mb 70f 73f
10:50pm 0.3ft  -  3s 9 11 mph 1011.5mb 71f 73f
9:50pm 0.3ft  -  3s 9
mph
1012.4mb 71f 73f
8:50pm 0.3ft  -  3s 7
mph
1012mb 73f 73f
7:50pm 0.3ft  -  3s 4
mph
1012.4mb 74f 74f
6:50pm 0.3ft  -  3s 2
mph
1013mb 74f 74f
5:50pm 0.3ft  -  3s 2
mph
1013.7mb 73f 74f